3 luglio 2022

Tempo Codice Tempo metereologico Temp. Vista Base nuvolosa Vento METAR/SPECI
6:55 am
V
72 °F 6¼ mi+ - 350° 350° 4 kt METAR LIPI 030455Z 35004KT CAVOK 22/18 Q1016 RMK FEW FEW200 VIS MIN 9999 WIND THR06 03005KT WIND THR24 01004KT BLU
5:55 am
V
68 °F 6¼ mi+ - 340° 340° 5 kt METAR LIPI 030355Z 34005KT CAVOK 20/18 Q1017 RMK FEW FEW200 VIS MIN 9999 WIND THR06 03004KT WIND THR24 36003KT BLU
4:55 am
V
68 °F 6¼ mi+ - 340° 340° 2 kt METAR LIPI 030255Z 34002KT CAVOK 20/18 Q1016
3:55 am
V
70 °F 6¼ mi+ - 350° 350° 4 kt METAR LIPI 030155Z 35004KT CAVOK 21/18 Q1017 RMK FEW FEW150 VIS MIN 9999 WIND THR06 02004KT WIND THR24 36003KT BLU
2:55 am
V
72 °F 6¼ mi+ - 360° 360° 5 kt METAR LIPI 030055Z 36005KT CAVOK 22/18 Q1017
1:55 am
V
75 °F 6¼ mi+ - 020° 020° 5 kt METAR LIPI 022355Z 02005KT CAVOK 24/17 Q1017 RMK FEW FEW150 VIS MIN 9999 WIND THR06 06006KT WIND THR24 04006KT BLU
12:55 am
V
75 °F 6¼ mi+ - 030° 030° 7 kt METAR LIPI 022255Z 03007KT CAVOK 24/16 Q1017 RMK FEW FEW150 VIS MIN 9999 WIND THR06 06006KT WIND THR24 04007KT BLU

2 luglio 2022

Tempo Codice Tempo metereologico Temp. Vista Base nuvolosa Vento METAR/SPECI
11:55 pm
V
75 °F 6¼ mi+ - 330° 330° 2 kt METAR LIPI 022155Z 33002KT CAVOK 24/17 Q1017
10:55 pm
V
79 °F 6¼ mi+ - 060° 060° 4 kt METAR LIPI 022055Z 06004KT CAVOK 26/19 Q1017 RMK FEW FEW150 VIS MIN 9999 WIND THR06 10005KT WIND THR24 08004KT BLU
9:55 pm
V
81 °F 6¼ mi+ - 040° 040° 4 kt METAR LIPI 021955Z 04004KT CAVOK 27/18 Q1016 RMK FEW FEW150 VIS MIN 9999 WIND THR06 08006KT WIND THR24 06004KT BLU
8:55 pm
V
84 °F 6¼ mi+ - 200° 200° 3 kt METAR LIPI 021855Z 20003KT CAVOK 29/16 Q1016 RMK SKC VIS MIN 9999 WIND THR06 24004KT WIND THR24 22003KT BLU
7:55 pm
V
90 °F 6¼ mi+ - 200° 200° 4 kt METAR LIPI 021755Z 20004KT CAVOK 32/14 Q1016 RMK SKC VIS MIN 9999 WIND THR06 23004KT WIND THR24 23005KT BLU
6:55 pm
V
91 °F 6¼ mi+ - 230° 230° 3 kt METAR LIPI 021655Z 23003KT CAVOK 33/13 Q1016 RMK SKC VIS MIN 9999 WIND THR06 25004KT WIND THR24 25004KT BLU
5:55 pm
V
91 °F 6¼ mi+ - 030° 030° 2 kt METAR LIPI 021555Z 03002KT CAVOK 33/13 Q1016
4:55 pm
V
91 °F 6¼ mi+ - 080° 080° 4 kt METAR LIPI 021455Z 08004KT CAVOK 33/14 Q1016 RMK SKC VIS MIN 9999 WIND THR06 15003KT WIND THR24 13002KT BLU
3:55 pm
V
91 °F 6¼ mi+ - 100° 100° 5 kt METAR LIPI 021355Z 10005KT CAVOK 33/14 Q1017 RMK SKC VIS MIN 9999 WIND THR06 15004KT WIND THR24 14004KT BLU
2:55 pm
V
90 °F 6¼ mi+ - 130° 130° 4 kt METAR LIPI 021255Z 13004KT CAVOK 32/15 Q1017
1:55 pm
V
90 °F 6¼ mi+ - 070° 070° 4 kt METAR LIPI 021155Z 07004KT CAVOK 32/16 Q1017
12:55 pm
V
88 °F 6¼ mi+ - 030° 030° 5 kt METAR LIPI 021055Z 03005KT CAVOK 31/16 Q1018 RMK SKC VIS MIN 9999 WIND THR06 12006KT WIND THR24 03005KT BLU
11:55 am
V
88 °F 6¼ mi+ - 050° 050° 7 kt METAR LIPI 020955Z 05007KT CAVOK 31/16 Q1018
10:55 am
V
86 °F 6¼ mi+ - 050° 050° 9 kt METAR LIPI 020855Z 05009KT CAVOK 30/16 Q1018
9:55 am
V
82 °F 6¼ mi+ - 020° 020° 8 kt METAR LIPI 020755Z 02008KT CAVOK 28/16 Q1018
8:55 am
V
81 °F 6¼ mi+ - 010° 010° 9 kt METAR LIPI 020655Z 01009KT CAVOK 27/16 Q1018 RMK SKC VIS MIN 9999 WIND THR06 04010KT WIND THR24 03008KT BLU
7:55 am
V
77 °F 6¼ mi+ - 010° 010° 3 kt METAR LIPI 020555Z 01003KT CAVOK 25/15 Q1017 RMK SKC VIS MIN 9999 WIND THR06 04009KT WIND THR24 01006KT BLU
6:55 am
V
73 °F 6¼ mi+ - 350° 350° 6 kt METAR LIPI 020455Z 35006KT CAVOK 23/15 Q1017 RMK SKC VIS MIN 9999 WIND THR06 03008KT WIND THR24 01007KT BLU
5:55 am
V
70 °F 6¼ mi+ - 350° 350° 6 kt METAR LIPI 020355Z 35006KT CAVOK 21/15 Q1016 RMK SKC VIS MIN 9999 WIND THR06 03008KT WIND THR24 01007KT BLU
4:55 am
V
68 °F 6¼ mi+ - 350° 350° 5 kt METAR LIPI 020255Z 35005KT CAVOK 20/16 Q1015 RMK SKC VIS MIN 9999 WIND THR06 03006KT WIND THR24 01006KT BLU
3:55 am
V
68 °F 6¼ mi+ - 350° 350° 6 kt METAR LIPI 020155Z 35006KT CAVOK 20/16 Q1015
2:55 am
V
68 °F 6¼ mi+ - 340° 340° 5 kt METAR LIPI 020055Z 34005KT CAVOK 20/16 Q1015 RMK SKC VIS MIN 9999 WIND THR06 02004KT WIND THR24 35004KT BLU
1:55 am
V
70 °F 6¼ mi+ - 030° 030° 2 kt METAR LIPI 012355Z 03002KT CAVOK 21/18 Q1015
12:55 am
V
72 °F 6¼ mi+ - 300° 300° 3 kt METAR LIPI 012255Z 30003KT CAVOK 22/18 Q1015 RMK SKC VIS MIN 9999 WIND THR06 35003KT WIND THR24 32004KT BLU

1 luglio 2022

Tempo Codice Tempo metereologico Temp. Vista Base nuvolosa Vento METAR/SPECI
11:55 pm
V
72 °F 6¼ mi+ - 340° 340° 4 kt METAR LIPI 012155Z 34004KT CAVOK 22/19 Q1014 RMK SKC VIS MIN 9999 WIND THR06 02004KT WIND THR24 34004KT BLU
10:55 pm
V
73 °F 6¼ mi+ - 340° 340° 3 kt METAR LIPI 012055Z 34003KT CAVOK 23/20 Q1014
9:55 pm
V
75 °F 6¼ mi+ - 340° 340° 3 kt METAR LIPI 011955Z 34003KT CAVOK 24/22 Q1013 RMK SKC VIS MIN 9999 WIND THR06 02005KT WIND THR24 35003KT BLU
8:55 pm
V
81 °F 6¼ mi+ - 350° 350° 2 kt METAR LIPI 011855Z 35002KT 9999 FEW040 SCT110 27/22 Q1012 RMK SCT VIS MIN 9999 WIND THR06 05002KT WIND THR24 36002KT BLU
7:55 pm
V
82 °F 6¼ mi+ - 300° 300° 4 kt METAR LIPI 011755Z 30004KT 9999 SCT040 SCT100 28/20 Q1012 RMK BKN VIS MIN 9999 WIND THR06 34004KT WIND THR24 31004KT BLU
6:55 pm
V
82 °F 6¼ mi+ - 290° 290° 1 kt METAR LIPI 011655Z 29001KT 9999 SCT040 SCT110 28/18 Q1013 RMK BKN VIS MIN 9999 WIND THR06 18003KT WIND THR24 21002KT BLU
5:55 pm
V
84 °F 6¼ mi+ 11.000 ft 190° 190° 6 kt METAR LIPI 011555Z 19006KT 9999 SCT030 BKN110 29/19 Q1013 RMK BKN VIS MIN 9999 WIND THR06 21004KT WIND THR24 20007KT BLU
4:55 pm
V
86 °F 6¼ mi+ - 170° 170° 6 kt METAR LIPI 011455Z 17006KT 9999 SCT040 30/20 Q1012
3:55 pm
V
84 °F 6¼ mi+ - 150° 150° 4 kt METAR LIPI 011355Z 15004KT 9999 SCT040 29/22 Q1013 RMK BKN SCT200 VIS MIN 9999 WIND THR06 18005KT WIND THR24 15005KT BLU
2:55 pm
V
84 °F 6¼ mi+ - 140° 140° 7 kt METAR LIPI 011255Z 14007KT 9999 FEW050 29/22 Q1013 RMK BKN SCT200 VIS MIN 9999 WIND THR06 19007KT WIND THR24 16007KT BLU
1:55 pm
V
86 °F 6¼ mi+ - 180° 180° 9 kt METAR LIPI 011155Z 18009KT 9999 FEW050 30/23 Q1013
12:55 pm
V
86 °F 6¼ mi+ - 170° 170° 8 kt METAR LIPI 011055Z 17008KT CAVOK 30/18 Q1012 RMK BKN BKN200 VIS MIN 9999 WIND THR06 20008KT WIND THR24 17008KT BLU
11:55 am
V
86 °F 6¼ mi+ - 130° 130° 6 kt METAR LIPI 010955Z 13006KT CAVOK 30/18 Q1012 RMK BKN BKN200 VIS MIN 9999 WIND THR06 16005KT WIND THR24 11006KT BLU
10:55 am
V
84 °F 6¼ mi+ - 080° 080° 5 kt METAR LIPI 010855Z 08005KT CAVOK 29/18 Q1012 RMK SCT SCT200 VIS MIN 9999 WIND THR06 17004KT WIND THR24 12005KT BLU
9:55 am
V
82 °F 6¼ mi+ - 080° 080° 6 kt METAR LIPI 010755Z 08006KT CAVOK 28/20 Q1012 RMK FEW FEW200 VIS MIN 9999 WIND THR06 13005KT WIND THR24 08006KT BLU
8:55 am
V
81 °F 6¼ mi+ - 050° 050° 5 kt METAR LIPI 010655Z 05005KT CAVOK 27/21 Q1013 RMK FEW FEW200 VIS MIN 9999 WIND THR06 08005KT WIND THR24 07005KT BLU
7:55 am
V
77 °F 6¼ mi+ - 010° 010° 4 kt METAR LIPI 010555Z 01004KT CAVOK 25/21 Q1013 RMK FEW FEW160 VIS MIN 9999 WIND THR06 06004KT WIND THR24 03004KT BLU
6:55 am
V
72 °F 6¼ mi+ - 010° 010° 4 kt METAR LIPI 010455Z 01004KT 9999 FEW045 SCT060 22/20 Q1013 RMK SCT VIS MIN 9999 WIND THR06 04006KT WIND THR24 02004KT BLU
5:55 am
V
70 °F 6¼ mi+ - 350° 350° 5 kt METAR LIPI 010355Z 35005KT 9999 FEW045 21/20 Q1013 RMK FEW VIS MIN 9999 WIND THR06 03004KT WIND THR24 02003KT BLU
4:55 am
V
70 °F 6¼ mi+ - Var Var 1 kt METAR LIPI 010255Z VRB01KT 9999 FEW045 21/20 Q1013
Dati più vecchi

Scarica la nostra applicazione

Facile accesso a tutte le previsioni dell'aviazione sul tuo cellulare e tablet.
Con molte caratteristiche non disponibili sul sito web, come il supporto offline e una lista personale di aeroporti.

Noi e le terze parti seguiamo il tuo comportamento in internet sul nostro sito web con i cookie. Se continui, riteniamo che tu sia d'accordo con la nostra politica sui cookie. Per saperne di più